PAJN/JNU METAR and TAF weather

Enter ICAO airport designator
Station Type Date Time Source
PAJN METAR 2019/05/26 22:53 UTC NOAA

PAJN 262253Z 23010KT 10SM FEW100 FEW200 22/08 A2996 RMK AO2 SLP146 T02220083 $


Station Type Date Time Source
PAJN Decoded METAR 2019/05/26 22:53 UTC NOAA

JUNEAU INTERNATIONAL AIRPORT, AK, United States (PAJN) 58-21N 134-34W 8M
May 26, 2019 - 06:53 PM EDT / 2019.05.26 2253 UTC
Wind: from the SW (230 degrees) at 12 MPH (10 KT):0
Visibility: 10 mile(s):0
Sky conditions: mostly clear
Temperature: 72.0 F (22.2 C)
Dew Point: 46.9 F (8.3 C)
Relative Humidity: 40%
Pressure (altimeter): 29.96 in. Hg (1014 hPa)
ob: PAJN 262253Z 23010KT 10SM FEW100 FEW200 22/08 A2996 RMK AO2 SLP146 T02220083
cycle: 23

Station Type Date Time Source
PAJN TAF 2019/05/26 18:22 UTC NOAA

TAF PAJN 261720Z 2618/2718 24008KT P6SM FEW100

Example: see airport list